Time;durP1;ratioP1;P1;durP2;ratioP2;P2;SDS_P1;SDS_P2;PMS_P1;PMS_P2;Temp;Humidity;BMP_temperature;BMP_pressure;BME280_temperature;BME280_humidity;BME280_pressure;Samples;Min_cycle;Max_cycle;Signal;HPM_P1;HPM_P2
2021/08/01 09:49:15;;;;;;;5.72;4.97;;;;;;;;;;2057020;28;99984;-17
2021/08/01 09:50:18;;;;;;;6.80;4.63;;;;;;;;;;2055937;28;100036;-17
2021/08/01 09:51:20;;;;;;;6.97;4.70;;;;;;;;;;2055012;28;99994;-14
2021/08/01 09:52:23;;;;;;;6.32;4.80;;;;;;;;;;2055245;28;100069;-15
2021/08/01 09:53:24;;;;;;;7.47;4.70;;;;;;;;;;2055896;28;100245;-17
2021/08/01 09:54:27;;;;;;;6.57;4.78;;;;;;;;;;2056202;28;100008;-18
2021/08/01 09:55:28;;;;;;;5.85;4.60;;;;;;;;;;2055882;28;99873;-16
2021/08/01 09:56:29;;;;;;;7.65;4.60;;;;;;;;;;2056100;28;100362;-16
2021/08/01 09:57:30;;;;;;;;;;;;;;;;;;2056504;28;100036;-16
2021/08/01 09:58:36;;;;;;;8.43;4.60;;;;;;;;;;2056321;28;99891;-17
2021/08/01 09:59:37;;;;;;;7.40;4.82;;;;;;;;;;2055688;28;100024;-15
2021/08/01 10:00:57;;;;;;;;;;;;;;;;;;2056146;28;100027;-18
2021/08/01 10:02:03;;;;;;;6.40;4.88;;;;;;;;;;2063939;28;99999;-18
2021/08/01 10:03:04;;;;;;;8.80;4.60;;;;;;;;;;2063312;28;99933;-15
2021/08/01 10:04:21;;;;;;;8.45;4.72;;;;;;;;;;2056012;28;100209;-18
2021/08/01 10:05:24;;;;;;;9.00;4.97;;;;;;;;;;2055930;28;100012;-17
2021/08/01 10:06:25;;;;;;;6.50;4.53;;;;;;;;;;2056391;28;100217;-18
2021/08/01 10:07:26;;;;;;;9.70;5.20;;;;;;;;;;2056093;28;99953;-17
2021/08/01 10:08:56;;;;;;;6.13;4.28;;;;;;;;;;2055927;28;100016;-17
2021/08/01 10:10:25;;;;;;;6.60;4.80;;;;;;;;;;2051305;28;100202;-18
2021/08/01 10:11:26;;;;;;;7.60;5.00;;;;;;;;;;2056021;28;100164;-16
2021/08/01 10:12:44;;;;;;;6.88;4.60;;;;;;;;;;2055738;28;100203;-18
2021/08/01 10:13:50;;;;;;;8.40;5.18;;;;;;;;;;2055768;28;99994;-15
2021/08/01 10:14:51;;;;;;;6.90;5.00;;;;;;;;;;2056408;28;99860;-16
2021/08/01 10:15:52;;;;;;;6.72;4.90;;;;;;;;;;2047076;28;99900;-15
2021/08/01 10:16:53;;;;;;;;;;;;;;;;;;2047958;28;99889;-15
2021/08/01 10:17:54;;;;;;;6.82;5.30;;;;;;;;;;2056288;28;100004;-18
2021/08/01 10:18:55;;;;;;;;;;;;;;;;;;2056524;28;99976;-15
2021/08/01 10:19:55;;;;;;;6.25;4.45;;;;;;;;;;2056296;28;99929;-18
2021/08/01 10:20:57;;;;;;;;;;;;;;;;;;2055923;28;100343;-17
2021/08/01 10:22:03;;;;;;;;;;;;;;;;;;2056205;28;100015;-16
2021/08/01 10:23:04;;;;;;;11.93;5.05;;;;;;;;;;2055799;28;100042;-17
2021/08/01 10:24:06;;;;;;;;;;;;;;;;;;2056360;28;99978;-18
2021/08/01 10:25:33;;;;;;;7.78;4.63;;;;;;;;;;2055330;28;99972;-17
2021/08/01 10:26:36;;;;;;;8.15;4.80;;;;;;;;;;2050755;28;100063;-17
2021/08/01 10:27:47;;;;;;;6.82;4.88;;;;;;;;;;2055739;28;100524;-16
2021/08/01 10:28:52;;;;;;;6.40;4.80;;;;;;;;;;2055805;28;100120;-16
2021/08/01 10:29:54;;;;;;;7.07;4.93;;;;;;;;;;2055575;28;100156;-19
2021/08/01 10:31:04;;;;;;;7.25;5.00;;;;;;;;;;2055622;28;100441;-18
2021/08/01 10:32:09;;;;;;;9.05;5.00;;;;;;;;;;2055730;28;99941;-18
2021/08/01 10:33:13;;;;;;;6.20;4.40;;;;;;;;;;2053484;28;99872;-15
2021/08/01 10:34:19;;;;;;;8.85;5.00;;;;;;;;;;2055775;28;100062;-16
2021/08/01 10:35:22;;;;;;;7.25;3.97;;;;;;;;;;2055551;28;99966;-16
2021/08/01 10:36:28;;;;;;;7.35;4.75;;;;;;;;;;2046569;28;99906;-16
2021/08/01 10:37:45;;;;;;;5.85;4.25;;;;;;;;;;2046635;28;99939;-18
2021/08/01 10:38:48;;;;;;;5.57;4.47;;;;;;;;;;2055563;28;100419;-18
2021/08/01 10:39:49;;;;;;;7.43;4.97;;;;;;;;;;2055699;28;100020;-19
2021/08/01 10:41:00;;;;;;;6.30;4.82;;;;;;;;;;2055577;28;99964;-16
2021/08/01 10:42:09;;;;;;;7.07;4.80;;;;;;;;;;2055114;28;100007;-19
2021/08/01 10:43:12;;;;;;;7.82;4.95;;;;;;;;;;2054948;28;100252;-17
2021/08/01 10:44:13;;;;;;;7.70;4.90;;;;;;;;;;2055951;28;100016;-19
2021/08/01 10:45:17;;;;;;;7.50;4.53;;;;;;;;;;2055633;28;99858;-19
2021/08/01 10:46:19;;;;;;;7.47;4.50;;;;;;;;;;2054793;28;100002;-18
2021/08/01 10:47:21;;;;;;;9.48;5.05;;;;;;;;;;2055035;28;99971;-18
2021/08/01 10:48:25;;;;;;;6.20;4.40;;;;;;;;;;2055523;28;99927;-19
2021/08/01 10:49:26;;;;;;;5.47;4.00;;;;;;;;;;2054534;28;99931;-19
2021/08/01 10:50:29;;;;;;;6.28;4.68;;;;;;;;;;2050259;28;99961;-18
2021/08/01 10:51:33;;;;;;;7.10;4.80;;;;;;;;;;2049895;28;100295;-14
2021/08/01 10:52:35;;;;;;;6.10;4.78;;;;;;;;;;2049653;28;99867;-16
2021/08/01 10:53:36;;;;;;;6.38;4.75;;;;;;;;;;2050352;28;100057;-15
2021/08/01 10:54:59;;;;;;;7.43;5.18;;;;;;;;;;2050369;28;100025;-18
2021/08/01 10:56:06;;;;;;;6.82;4.90;;;;;;;;;;2050534;28;100208;-17
2021/08/01 10:57:18;;;;;;;5.68;4.30;;;;;;;;;;2050623;28;99970;-15
2021/08/01 10:58:19;;;;;;;6.38;4.80;;;;;;;;;;2050558;28;100015;-18
2021/08/01 10:59:45;;;;;;;7.65;4.82;;;;;;;;;;2050385;28;100011;-17
2021/08/01 11:00:55;;;;;;;9.43;4.20;;;;;;;;;;2050622;28;99957;-18
2021/08/01 11:02:14;;;;;;;7.32;5.13;;;;;;;;;;2050082;28;100688;-16
2021/08/01 11:03:19;;;;;;;6.75;4.60;;;;;;;;;;2048078;28;100060;-18
2021/08/01 11:04:32;;;;;;;6.28;4.50;;;;;;;;;;2049687;28;99953;-14
2021/08/01 11:05:37;;;;;;;6.38;4.88;;;;;;;;;;2050065;28;99883;-16
2021/08/01 11:06:46;;;;;;;5.72;4.60;;;;;;;;;;2049845;28;101411;-18
2021/08/01 11:07:47;;;;;;;6.28;4.57;;;;;;;;;;2049621;28;100094;-15
2021/08/01 11:09:07;;;;;;;;;;;;;;;;;;2049933;28;100014;-18
2021/08/01 11:10:10;;;;;;;6.97;4.53;;;;;;;;;;2049880;28;99918;-16
2021/08/01 11:11:18;;;;;;;7.70;4.78;;;;;;;;;;2049942;28;99958;-14
2021/08/01 11:12:18;;;;;;;7.65;4.38;;;;;;;;;;2049828;28;100117;-18
2021/08/01 11:13:31;;;;;;;;;;;;;;;;;;2049901;28;100404;-18
2021/08/01 11:14:53;;;;;;;6.97;4.70;;;;;;;;;;2046711;28;99988;-18
2021/08/01 11:15:56;;;;;;;6.07;4.65;;;;;;;;;;2049839;28;100205;-20
2021/08/01 11:16:58;;;;;;;7.50;4.75;;;;;;;;;;2048926;28;100173;-17
2021/08/01 11:18:04;;;;;;;;;;;;;;;;;;2041861;28;100289;-16
2021/08/01 11:19:34;;;;;;;8.02;4.55;;;;;;;;;;2049331;28;100044;-19
2021/08/01 11:20:35;;;;;;;7.00;5.07;;;;;;;;;;2050011;28;102326;-17
2021/08/01 11:21:36;;;;;;;;;;;;;;;;;;2050201;28;100796;-17
2021/08/01 11:22:40;;;;;;;8.02;4.38;;;;;;;;;;2048656;28;100100;-18
2021/08/01 11:23:47;;;;;;;5.45;4.07;;;;;;;;;;2049068;28;99991;-19
2021/08/01 11:25:24;;;;;;;7.15;4.57;;;;;;;;;;2049760;28;100084;-19
2021/08/01 11:26:25;;;;;;;8.27;4.43;;;;;;;;;;2045498;28;100143;-15
2021/08/01 11:27:26;;;;;;;6.65;4.68;;;;;;;;;;2049236;28;100169;-16
2021/08/01 11:28:32;;;;;;;;;;;;;;;;;;2049852;28;100328;-17
2021/08/01 11:29:56;;;;;;;6.53;4.45;;;;;;;;;;2048982;28;100093;-19
2021/08/01 11:30:57;;;;;;;8.23;4.60;;;;;;;;;;2049834;28;100207;-20
2021/08/01 11:32:08;;;;;;;7.57;4.18;;;;;;;;;;2049862;28;100413;-16
2021/08/01 11:33:34;;;;;;;8.50;4.60;;;;;;;;;;2049450;28;99976;-16
2021/08/01 11:34:36;;;;;;;8.70;4.85;;;;;;;;;;2049966;28;100209;-17
2021/08/01 11:35:37;;;;;;;7.75;4.75;;;;;;;;;;2049561;28;100052;-16
2021/08/01 11:36:38;;;;;;;7.75;4.05;;;;;;;;;;2049185;28;100661;-19
2021/08/01 11:37:40;;;;;;;7.80;4.40;;;;;;;;;;2033208;28;100106;-19
2021/08/01 11:38:56;;;;;;;8.23;4.78;;;;;;;;;;2032531;28;100091;-17
2021/08/01 11:39:58;;;;;;;8.20;4.80;;;;;;;;;;2040911;28;100206;-18
2021/08/01 11:40:59;;;;;;;9.55;4.93;;;;;;;;;;2050563;28;100105;-19
2021/08/01 11:42:00;;;;;;;;;;;;;;;;;;2055948;28;100044;-17
2021/08/01 11:43:06;;;;;;;7.50;4.53;;;;;;;;;;2053150;28;99907;-17
2021/08/01 11:44:23;;;;;;;7.20;4.70;;;;;;;;;;2049715;28;100286;-18
2021/08/01 11:45:57;;;;;;;8.85;4.68;;;;;;;;;;2049422;28;100087;-19
2021/08/01 11:47:07;;;;;;;8.68;4.72;;;;;;;;;;2049938;28;99961;-17
2021/08/01 11:48:17;;;;;;;9.18;4.78;;;;;;;;;;2049795;28;99996;-18
2021/08/01 11:49:29;;;;;;;7.60;4.47;;;;;;;;;;2049553;28;100007;-17
2021/08/01 11:50:30;;;;;;;;;;;;;;;;;;2050280;28;99992;-19
2021/08/01 11:51:31;;;;;;;10.70;4.88;;;;;;;;;;2049991;28;99888;-18
2021/08/01 11:52:42;;;;;;;8.32;4.53;;;;;;;;;;2049434;28;99981;-16
2021/08/01 11:53:47;;;;;;;9.27;5.07;;;;;;;;;;2049773;28;100015;-19
2021/08/01 11:54:54;;;;;;;7.43;5.00;;;;;;;;;;2048915;28;100558;-16
2021/08/01 11:55:59;;;;;;;7.53;4.40;;;;;;;;;;2049036;28;100089;-18
2021/08/01 11:57:02;;;;;;;108.65;63.25;;;;;;;;;;2048583;28;99991;-18
2021/08/01 11:58:04;;;;;;;295.38;196.15;;;;;;;;;;2048996;28;99981;-18
2021/08/01 11:59:07;;;;;;;256.45;158.50;;;;;;;;;;2048999;28;99940;-18
2021/08/01 12:00:08;;;;;;;199.13;126.30;;;;;;;;;;2049080;28;100198;-18
2021/08/01 12:01:10;;;;;;;138.75;88.53;;;;;;;;;;2047834;28;101780;-18
2021/08/01 12:02:15;;;;;;;137.30;83.82;;;;;;;;;;2044927;28;100035;-20
2021/08/01 12:03:23;;;;;;;130.25;81.03;;;;;;;;;;2049401;28;99996;-15
2021/08/01 12:04:25;;;;;;;116.65;70.03;;;;;;;;;;2049218;28;100005;-16
2021/08/01 12:05:49;;;;;;;82.97;48.45;;;;;;;;;;2049866;28;99969;-14
2021/08/01 12:06:53;;;;;;;152.95;91.03;;;;;;;;;;2049274;28;100017;-17
2021/08/01 12:07:54;;;;;;;155.13;95.25;;;;;;;;;;2048629;28;100112;-16
2021/08/01 12:08:54;;;;;;;;;;;;;;;;;;2040967;28;100420;-17
2021/08/01 12:09:55;;;;;;;124.88;74.45;;;;;;;;;;2040955;28;100042;-16
2021/08/01 12:11:12;;;;;;;;;;;;;;;;;;2041012;28;100615;-19
2021/08/01 12:12:13;;;;;;;126.45;72.93;;;;;;;;;;2049301;28;99961;-20
2021/08/01 12:13:13;;;;;;;;;;;;;;;;;;2049738;28;100876;-19
2021/08/01 12:14:15;;;;;;;111.27;62.33;;;;;;;;;;2049565;28;100234;-18
2021/08/01 12:15:17;;;;;;;107.38;60.72;;;;;;;;;;2048703;28;100330;-15
2021/08/01 12:16:18;;;;;;;108.90;63.92;;;;;;;;;;2040858;28;100209;-18
2021/08/01 12:17:19;;;;;;;101.68;61.20;;;;;;;;;;2048154;28;100109;-16
2021/08/01 12:18:27;;;;;;;100.90;58.55;;;;;;;;;;2048506;28;100022;-19
2021/08/01 12:19:42;;;;;;;102.50;60.88;;;;;;;;;;2055529;28;100304;-19
2021/08/01 12:20:43;;;;;;;106.30;63.25;;;;;;;;;;2055148;28;100092;-16
2021/08/01 12:21:45;;;;;;;;;;;;;;;;;;2057844;28;100366;-17
2021/08/01 12:22:52;;;;;;;90.40;50.90;;;;;;;;;;2057813;28;100125;-16
2021/08/01 12:23:53;;;;;;;85.60;49.50;;;;;;;;;;2057519;28;99832;-19
2021/08/01 12:24:56;;;;;;;;;;;;;;;;;;2057567;28;99946;-18
2021/08/01 12:25:57;;;;;;;87.22;51.85;;;;;;;;;;2057359;28;100044;-19
2021/08/01 12:27:02;;;;;;;;;;;;;;;;;;2057873;28;100087;-18
2021/08/01 12:28:03;;;;;;;97.28;55.67;;;;;;;;;;2057063;28;99932;-19
2021/08/01 12:29:04;;;;;;;101.68;57.00;;;;;;;;;;2057073;28;100488;-16
2021/08/01 12:30:05;;;;;;;;;;;;;;;;;;2057422;28;99984;-18
2021/08/01 12:31:08;;;;;;;112.68;58.88;;;;;;;;;;2057137;28;100004;-15
2021/08/01 12:32:19;;;;;;;;;;;;;;;;;;2057618;28;99911;-17
2021/08/01 12:33:20;;;;;;;99.28;56.50;;;;;;;;;;2057272;28;99874;-15
2021/08/01 12:34:21;;;;;;;;;;;;;;;;;;2057138;28;99929;-16
2021/08/01 12:35:26;;;;;;;106.45;56.33;;;;;;;;;;2056889;28;99882;-18
2021/08/01 12:36:27;;;;;;;92.07;56.15;;;;;;;;;;2057353;28;99960;-16
2021/08/01 12:37:30;;;;;;;99.05;58.38;;;;;;;;;;2057169;28;100003;-18
2021/08/01 12:38:31;;;;;;;99.72;56.58;;;;;;;;;;2057293;28;99993;-17
2021/08/01 12:39:32;;;;;;;91.63;50.95;;;;;;;;;;2057093;28;99864;-19
2021/08/01 12:40:34;;;;;;;;;;;;;;;;;;2057383;28;99976;-17
2021/08/01 12:41:36;;;;;;;95.50;54.90;;;;;;;;;;2057214;28;100092;-15
2021/08/01 12:42:52;;;;;;;103.82;55.88;;;;;;;;;;2057302;28;99967;-17
2021/08/01 12:43:53;;;;;;;93.85;53.85;;;;;;;;;;2057236;28;100020;-16
2021/08/01 12:45:03;;;;;;;88.97;48.83;;;;;;;;;;2057468;28;99875;-15
2021/08/01 12:46:18;;;;;;;92.85;52.47;;;;;;;;;;2057291;28;99785;-15
2021/08/01 12:47:20;;;;;;;93.28;53.50;;;;;;;;;;2057572;28;100188;-16
2021/08/01 12:48:24;;;;;;;86.13;51.10;;;;;;;;;;2056948;28;99943;-17
2021/08/01 12:49:25;;;;;;;83.63;47.20;;;;;;;;;;2057361;28;100251;-18
2021/08/01 12:50:27;;;;;;;87.40;50.85;;;;;;;;;;2056755;28;99948;-15
2021/08/01 12:51:28;;;;;;;77.68;44.63;;;;;;;;;;2057266;28;100292;-16
2021/08/01 12:52:30;;;;;;;96.05;53.10;;;;;;;;;;2057138;28;100282;-18
2021/08/01 12:53:31;;;;;;;89.68;50.70;;;;;;;;;;2057027;28;100046;-18
2021/08/01 12:54:33;;;;;;;92.85;49.80;;;;;;;;;;2056179;28;99953;-18
2021/08/01 12:55:34;;;;;;;84.68;50.35;;;;;;;;;;2056680;28;100029;-19
2021/08/01 12:56:35;;;;;;;;;;;;;;;;;;2048476;28;100046;-15
2021/08/01 12:58:05;;;;;;;87.93;48.80;;;;;;;;;;2048912;28;100087;-18
2021/08/01 12:59:13;;;;;;;86.40;49.13;;;;;;;;;;2056775;28;100092;-18
2021/08/01 13:00:16;;;;;;;90.22;49.85;;;;;;;;;;2057254;28;99914;-16
2021/08/01 13:01:17;;;;;;;97.30;50.63;;;;;;;;;;2056805;28;100185;-18
2021/08/01 13:02:27;;;;;;;91.20;50.83;;;;;;;;;;2057262;28;99963;-18
2021/08/01 13:03:42;;;;;;;96.40;52.20;;;;;;;;;;2057277;28;100107;-16
2021/08/01 13:04:45;;;;;;;94.10;53.40;;;;;;;;;;2057166;28;100217;-16
2021/08/01 13:05:53;;;;;;;98.22;52.42;;;;;;;;;;2057343;28;100022;-16
2021/08/01 13:07:04;;;;;;;98.68;53.55;;;;;;;;;;2057205;28;100011;-18
2021/08/01 13:08:05;;;;;;;99.28;54.78;;;;;;;;;;2056945;28;99967;-17
2021/08/01 13:09:06;;;;;;;102.20;53.90;;;;;;;;;;2057321;28;100014;-19
2021/08/01 13:10:08;;;;;;;;;;;;;;;;;;2056814;28;100118;-16
2021/08/01 13:11:14;;;;;;;95.63;51.80;;;;;;;;;;2048442;28;100806;-17
2021/08/01 13:12:16;;;;;;;96.60;51.85;;;;;;;;;;2048700;28;100229;-16
2021/08/01 13:13:19;;;;;;;93.90;52.38;;;;;;;;;;2048110;28;100204;-18
2021/08/01 13:14:33;;;;;;;92.18;51.45;;;;;;;;;;2056252;28;99983;-18
2021/08/01 13:15:37;;;;;;;90.47;50.70;;;;;;;;;;2057013;28;100039;-18
2021/08/01 13:16:54;;;;;;;94.28;51.88;;;;;;;;;;2057048;28;100041;-16
2021/08/01 13:17:56;;;;;;;95.35;52.85;;;;;;;;;;2056213;28;100689;-18
2021/08/01 13:19:14;;;;;;;93.50;50.13;;;;;;;;;;2055933;28;100211;-17
2021/08/01 13:20:35;;;;;;;93.53;50.35;;;;;;;;;;2057214;28;100016;-19
2021/08/01 13:21:36;;;;;;;;;;;;;;;;;;2057153;28;100077;-19
2021/08/01 13:22:37;;;;;;;88.57;47.13;;;;;;;;;;2057142;28;100025;-16
2021/08/01 13:23:40;;;;;;;88.78;47.50;;;;;;;;;;2056425;28;100156;-16
2021/08/01 13:24:43;;;;;;;89.25;46.15;;;;;;;;;;2057129;28;99908;-17
2021/08/01 13:25:44;;;;;;;79.68;46.15;;;;;;;;;;2057116;28;99890;-15
2021/08/01 13:26:58;;;;;;;;;;;;;;;;;;2057830;28;100001;-17
2021/08/01 13:27:59;;;;;;;83.40;45.05;;;;;;;;;;2057418;28;99965;-19
2021/08/01 13:29:15;;;;;;;92.40;45.63;;;;;;;;;;2056009;28;99991;-16
2021/08/01 13:30:24;;;;;;;85.45;45.30;;;;;;;;;;2056244;28;100221;-19
2021/08/01 13:31:36;;;;;;;86.57;45.10;;;;;;;;;;2057552;28;99986;-16
2021/08/01 13:32:42;;;;;;;83.03;44.75;;;;;;;;;;2057373;28;99978;-19
2021/08/01 13:33:57;;;;;;;82.18;45.13;;;;;;;;;;2056124;28;99937;-18
2021/08/01 13:34:58;;;;;;;85.20;43.80;;;;;;;;;;2056568;28;99987;-17
2021/08/01 13:35:59;;;;;;;;;;;;;;;;;;2056795;28;99954;-17
2021/08/01 13:37:01;;;;;;;84.00;43.90;;;;;;;;;;2056875;28;100035;-18
2021/08/01 13:38:06;;;;;;;79.03;43.28;;;;;;;;;;2056778;28;99959;-15
2021/08/01 13:39:11;;;;;;;75.60;42.58;;;;;;;;;;2057275;28;100119;-20
2021/08/01 13:40:12;;;;;;;81.38;42.45;;;;;;;;;;2056246;28;100024;-19
2021/08/01 13:41:22;;;;;;;;;;;;;;;;;;2056438;28;100140;-15
2021/08/01 13:42:35;;;;;;;73.75;40.20;;;;;;;;;;2056883;28;100454;-18
2021/08/01 13:43:45;;;;;;;76.32;40.45;;;;;;;;;;2056727;28;100014;-16
2021/08/01 13:44:52;;;;;;;67.85;38.55;;;;;;;;;;2056934;28;99979;-19
2021/08/01 13:45:53;;;;;;;73.32;40.17;;;;;;;;;;2056164;28;100050;-17
2021/08/01 13:47:08;;;;;;;75.85;40.55;;;;;;;;;;2048107;28;100064;-15
2021/08/01 13:48:10;;;;;;;75.00;39.78;;;;;;;;;;2049922;28;99985;-17
2021/08/01 13:49:11;;;;;;;66.25;37.13;;;;;;;;;;2055896;28;99983;-16
2021/08/01 13:50:14;;;;;;;74.32;40.33;;;;;;;;;;2055861;28;100742;-18
2021/08/01 13:51:15;;;;;;;73.40;38.22;;;;;;;;;;2056099;28;100012;-18
2021/08/01 13:52:16;;;;;;;;;;;;;;;;;;2057072;28;99991;-20
2021/08/01 13:53:17;;;;;;;67.85;36.53;;;;;;;;;;2056863;28;100002;-16
2021/08/01 13:54:17;;;;;;;;;;;;;;;;;;2057070;28;100188;-16
2021/08/01 13:55:20;;;;;;;64.90;36.25;;;;;;;;;;2056994;28;100056;-19
2021/08/01 13:56:21;;;;;;;65.45;34.90;;;;;;;;;;2055912;28;99885;-15
2021/08/01 13:57:23;;;;;;;63.95;34.13;;;;;;;;;;2047960;28;99922;-18
2021/08/01 13:58:24;;;;;;;63.10;36.95;;;;;;;;;;2048177;28;100232;-15
2021/08/01 13:59:25;;;;;;;65.53;34.85;;;;;;;;;;2055638;28;100533;-17
2021/08/01 14:00:26;;;;;;;;;;;;;;;;;;2056827;28;100028;-18
2021/08/01 14:01:27;;;;;;;58.90;33.63;;;;;;;;;;2056661;28;100063;-17
2021/08/01 14:02:28;;;;;;;60.60;34.50;;;;;;;;;;2056001;28;100088;-17
2021/08/01 14:03:29;;;;;;;66.03;33.25;;;;;;;;;;2048250;28;100515;-15
2021/08/01 14:04:30;;;;;;;;;;;;;;;;;;2056619;28;100235;-17
2021/08/01 14:05:31;;;;;;;59.83;33.15;;;;;;;;;;2056920;28;99900;-18
2021/08/01 14:06:32;;;;;;;;;;;;;;;;;;2057552;28;99942;-17
2021/08/01 14:07:33;;;;;;;54.17;31.17;;;;;;;;;;2057272;28;99897;-19
2021/08/01 14:08:33;;;;;;;;;;;;;;;;;;2057523;28;100019;-16
2021/08/01 14:09:35;;;;;;;51.85;30.38;;;;;;;;;;2057051;28;101453;-19
2021/08/01 14:10:36;;;;;;;52.63;31.60;;;;;;;;;;2056044;28;100068;-17
2021/08/01 14:11:37;;;;;;;54.83;30.85;;;;;;;;;;2056037;28;100040;-19
2021/08/01 14:12:39;;;;;;;;;;;;;;;;;;2056728;28;100092;-19
2021/08/01 14:13:40;;;;;;;51.58;29.60;;;;;;;;;;2056489;28;100238;-15
2021/08/01 14:14:41;;;;;;;51.22;29.65;;;;;;;;;;2057105;28;100028;-16
2021/08/01 14:15:42;;;;;;;52.83;29.98;;;;;;;;;;2047803;28;99990;-18
2021/08/01 14:16:43;;;;;;;;;;;;;;;;;;2048652;28;100017;-15
2021/08/01 14:17:44;;;;;;;50.72;29.23;;;;;;;;;;2057027;28;100014;-20
2021/08/01 14:18:45;;;;;;;;;;;;;;;;;;2057185;28;99999;-18
2021/08/01 14:19:46;;;;;;;51.70;27.05;;;;;;;;;;2056968;28;100039;-18
2021/08/01 14:20:47;;;;;;;52.50;28.10;;;;;;;;;;2056941;28;99988;-16
2021/08/01 14:21:48;;;;;;;50.42;29.10;;;;;;;;;;2056626;28;100118;-20
2021/08/01 14:22:49;;;;;;;48.78;28.05;;;;;;;;;;2055711;28;100117;-20
2021/08/01 14:23:50;;;;;;;;;;;;;;;;;;2056561;28;99972;-17
2021/08/01 14:24:51;;;;;;;50.83;27.90;;;;;;;;;;2057356;28;99839;-19
2021/08/01 14:25:54;;;;;;;;;;;;;;;;;;2058573;28;99897;-18
2021/08/01 14:26:57;;;;;;;41.85;25.77;;;;;;;;;;2057795;28;99899;-17
2021/08/01 14:27:59;;;;;;;41.72;26.08;;;;;;;;;;2058012;28;100310;-21
2021/08/01 14:29:01;;;;;;;47.03;26.90;;;;;;;;;;2058224;28;100178;-18
2021/08/01 14:30:03;;;;;;;54.42;26.83;;;;;;;;;;2057086;28;100000;-19
2021/08/01 14:31:05;;;;;;;43.70;26.15;;;;;;;;;;2049383;28;99923;-17
2021/08/01 14:32:10;;;;;;;45.63;26.45;;;;;;;;;;2049685;28;100273;-19
2021/08/01 14:33:15;;;;;;;43.78;26.30;;;;;;;;;;2057408;28;100000;-18
2021/08/01 14:34:22;;;;;;;44.55;26.27;;;;;;;;;;2058234;28;99938;-17
2021/08/01 14:35:23;;;;;;;38.15;24.45;;;;;;;;;;2058321;28;99904;-18
2021/08/01 14:36:24;;;;;;;43.47;25.42;;;;;;;;;;2058140;28;100027;-16
2021/08/01 14:37:25;;;;;;;44.72;26.25;;;;;;;;;;2058127;28;99987;-17
2021/08/01 14:38:27;;;;;;;38.92;24.83;;;;;;;;;;2058125;28;99976;-18
2021/08/01 14:39:28;;;;;;;41.65;25.35;;;;;;;;;;2057704;28;100096;-19
2021/08/01 14:40:29;;;;;;;41.22;25.27;;;;;;;;;;2057207;28;100259;-18
2021/08/01 14:41:30;;;;;;;42.00;25.63;;;;;;;;;;2057756;28;99968;-19
2021/08/01 14:42:32;;;;;;;39.50;24.80;;;;;;;;;;2057335;28;100540;-17
2021/08/01 14:43:33;;;;;;;40.00;24.63;;;;;;;;;;2057891;28;99978;-17
2021/08/01 14:44:36;;;;;;;42.42;25.08;;;;;;;;;;2058182;28;100172;-16
2021/08/01 14:45:38;;;;;;;37.90;22.95;;;;;;;;;;2057973;28;100272;-18
2021/08/01 14:46:39;;;;;;;37.83;22.88;;;;;;;;;;2058329;28;99941;-18
2021/08/01 14:47:43;;;;;;;30.00;17.85;;;;;;;;;;2049264;28;100224;-18
2021/08/01 14:48:46;;;;;;;22.65;12.35;;;;;;;;;;2049037;28;100136;-16
2021/08/01 14:49:50;;;;;;;34.47;20.50;;;;;;;;;;2058040;28;100246;-15
2021/08/01 14:50:53;;;;;;;21.55;12.90;;;;;;;;;;2057280;28;100150;-19
2021/08/01 14:53:05;;;;;;;31.10;16.53;;;;;;;;;;2049101;28;101489;-17
2021/08/01 14:54:06;;;;;;;30.23;16.20;;;;;;;;;;2049162;28;100144;-15
2021/08/01 14:55:09;;;;;;;34.03;16.48;;;;;;;;;;2049956;28;100136;-16
2021/08/01 14:56:12;;;;;;;26.88;14.60;;;;;;;;;;2050084;28;99883;-15
2021/08/01 14:57:36;;;;;;;24.60;14.07;;;;;;;;;;2049049;28;100065;-16
2021/08/01 14:58:42;;;;;;;23.30;12.32;;;;;;;;;;2044322;28;100072;-17
2021/08/01 14:59:47;;;;;;;14.27;8.38;;;;;;;;;;2048937;28;100446;-14
2021/08/01 15:01:16;;;;;;;11.82;8.20;;;;;;;;;;2049993;28;99932;-16
2021/08/01 15:02:36;;;;;;;10.55;6.38;;;;;;;;;;2047354;28;99930;-15
2021/08/01 15:04:04;;;;;;;17.73;10.25;;;;;;;;;;2046101;28;99938;-19
2021/08/01 15:05:08;;;;;;;12.23;7.05;;;;;;;;;;2041722;28;99973;-30
2021/08/01 15:06:12;;;;;;;11.52;6.45;;;;;;;;;;2045373;28;99869;-18
2021/08/01 15:07:19;;;;;;;10.65;6.75;;;;;;;;;;2041154;28;99995;-23
2021/08/01 15:08:49;;;;;;;9.80;6.13;;;;;;;;;;2046782;28;99986;-16
2021/08/01 15:10:11;;;;;;;10.32;5.35;;;;;;;;;;2045805;28;101308;-19
2021/08/01 15:11:17;;;;;;;11.55;5.70;;;;;;;;;;2048878;28;99900;-20
2021/08/01 15:12:22;;;;;;;9.93;5.85;;;;;;;;;;2041291;28;100123;-20
2021/08/01 15:13:32;;;;;;;9.35;5.38;;;;;;;;;;2041599;28;100016;-20
2021/08/01 15:14:42;;;;;;;9.40;5.45;;;;;;;;;;2041712;28;100048;-21
2021/08/01 15:15:47;;;;;;;8.85;6.03;;;;;;;;;;2041600;28;99886;-21
2021/08/01 15:17:10;;;;;;;7.60;4.80;;;;;;;;;;2040578;28;100453;-18
2021/08/01 15:18:15;;;;;;;7.85;5.25;;;;;;;;;;2047929;28;100167;-19
2021/08/01 15:19:25;;;;;;;7.80;5.10;;;;;;;;;;2049912;28;100040;-19
2021/08/01 15:20:27;;;;;;;6.72;4.63;;;;;;;;;;2049660;28;100109;-18
2021/08/01 15:21:32;;;;;;;8.68;5.05;;;;;;;;;;2049702;28;99963;-18
2021/08/01 15:22:49;;;;;;;7.55;4.78;;;;;;;;;;2045572;28;100959;-20
2021/08/01 15:24:06;;;;;;;8.10;4.68;;;;;;;;;;2047045;28;100463;-20
2021/08/01 15:25:09;;;;;;;6.13;4.57;;;;;;;;;;2041743;28;100058;-19
2021/08/01 15:26:11;;;;;;;6.28;4.75;;;;;;;;;;2041211;28;100047;-22
2021/08/01 15:27:15;;;;;;;7.97;5.03;;;;;;;;;;2041464;28;99825;-19
2021/08/01 15:28:16;;;;;;;6.45;5.05;;;;;;;;;;2043193;28;99895;-18
2021/08/01 15:29:16;;;;;;;;;;;;;;;;;;2048090;28;100172;-21
2021/08/01 15:30:20;;;;;;;8.68;4.35;;;;;;;;;;2046435;28;100121;-20
2021/08/01 15:31:21;;;;;;;6.88;4.75;;;;;;;;;;2048217;28;100611;-17
2021/08/01 15:32:22;;;;;;;8.32;4.50;;;;;;;;;;2047054;28;99932;-20
2021/08/01 15:33:23;;;;;;;6.72;4.63;;;;;;;;;;2041426;28;99880;-19
2021/08/01 15:34:25;;;;;;;7.20;4.45;;;;;;;;;;2041568;28;100037;-19
2021/08/01 15:35:30;;;;;;;6.93;5.10;;;;;;;;;;2048674;28;100089;-21
2021/08/01 15:36:33;;;;;;;6.00;4.10;;;;;;;;;;2046244;28;100254;-19
2021/08/01 15:37:36;;;;;;;6.88;4.40;;;;;;;;;;2040592;28;99974;-20
2021/08/01 15:38:38;;;;;;;7.30;4.75;;;;;;;;;;2040942;28;100235;-18
2021/08/01 15:39:40;;;;;;;7.10;4.20;;;;;;;;;;2041198;28;100077;-18
2021/08/01 15:40:42;;;;;;;7.18;4.95;;;;;;;;;;2043881;28;100112;-19
2021/08/01 15:41:43;;;;;;;7.18;4.40;;;;;;;;;;2041231;28;100155;-20
2021/08/01 15:42:49;;;;;;;7.22;4.32;;;;;;;;;;2041257;28;99959;-18
2021/08/01 15:43:50;;;;;;;8.05;4.25;;;;;;;;;;2041185;28;100249;-20
2021/08/01 15:44:53;;;;;;;5.63;4.40;;;;;;;;;;2041572;28;99849;-18
2021/08/01 15:45:59;;;;;;;6.03;4.75;;;;;;;;;;2056905;28;99995;-18
2021/08/01 15:47:02;;;;;;;5.78;4.60;;;;;;;;;;2052253;28;100307;-18
2021/08/01 15:48:03;;;;;;;6.68;4.88;;;;;;;;;;2047889;28;100018;-18
2021/08/01 15:49:08;;;;;;;6.43;4.32;;;;;;;;;;2049073;28;100688;-18
2021/08/01 15:50:12;;;;;;;6.20;3.95;;;;;;;;;;2049199;28;100029;-19
2021/08/01 15:51:15;;;;;;;6.40;4.68;;;;;;;;;;2049595;28;100017;-19
2021/08/01 15:52:36;;;;;;;5.35;4.43;;;;;;;;;;2041262;28;100008;-19
2021/08/01 15:54:06;;;;;;;6.90;4.60;;;;;;;;;;2043052;28;100018;-21
2021/08/01 15:55:11;;;;;;;6.63;4.25;;;;;;;;;;2043546;28;100003;-20
2021/08/01 15:56:18;;;;;;;7.57;4.70;;;;;;;;;;2041184;28;100232;-20
2021/08/01 15:57:22;;;;;;;9.38;4.35;;;;;;;;;;2041252;28;100076;-21
2021/08/01 15:58:57;;;;;;;5.68;4.25;;;;;;;;;;2040314;28;100035;-18
2021/08/01 16:00:03;;;;;;;8.93;4.95;;;;;;;;;;2040895;28;99992;-20
2021/08/01 16:01:13;;;;;;;8.68;5.05;;;;;;;;;;2041362;28;100066;-21
2021/08/01 16:02:31;;;;;;;7.50;4.32;;;;;;;;;;2048406;28;100691;-20
2021/08/01 16:04:02;;;;;;;7.78;4.35;;;;;;;;;;2047013;28;100164;-19
2021/08/01 16:05:07;;;;;;;;;;;;;;;;;;2041544;28;100095;-21
2021/08/01 16:06:10;;;;;;;7.10;3.83;;;;;;;;;;2047190;28;100465;-18
2021/08/01 16:07:12;;;;;;;7.80;4.40;;;;;;;;;;2049277;28;99865;-19
2021/08/01 16:08:25;;;;;;;10.30;5.22;;;;;;;;;;2049190;28;99889;-18
2021/08/01 16:09:34;;;;;;;6.15;4.57;;;;;;;;;;2048773;28;100660;-18
2021/08/01 16:10:39;;;;;;;8.48;4.65;;;;;;;;;;2041421;28;100156;-18
2021/08/01 16:11:43;;;;;;;7.07;4.53;;;;;;;;;;2041192;28;100052;-18
2021/08/01 16:12:58;;;;;;;8.18;4.40;;;;;;;;;;2041384;28;100085;-17
2021/08/01 16:14:04;;;;;;;5.35;4.25;;;;;;;;;;2046050;28;99884;-16
2021/08/01 16:15:07;;;;;;;7.35;4.30;;;;;;;;;;2049387;28;100055;-18
2021/08/01 16:16:16;;;;;;;7.68;4.35;;;;;;;;;;2043641;28;99882;-18
2021/08/01 16:17:30;;;;;;;8.25;4.75;;;;;;;;;;2041244;28;100012;-21
2021/08/01 16:18:31;;;;;;;6.85;4.30;;;;;;;;;;2041213;28;99908;-18
2021/08/01 16:19:33;;;;;;;8.18;4.60;;;;;;;;;;2040709;28;99875;-19
2021/08/01 16:20:35;;;;;;;5.78;4.75;;;;;;;;;;2040366;28;100130;-20
2021/08/01 16:21:36;;;;;;;6.18;4.40;;;;;;;;;;2041040;28;100054;-17